Time;durP1;ratioP1;P1;durP2;ratioP2;P2;SDS_P1;SDS_P2;PMS_P1;PMS_P2;Temp;Humidity;BMP_temperature;BMP_pressure;BME280_temperature;BME280_humidity;BME280_pressure;Samples;Min_cycle;Max_cycle;Signal;HPM_P1;HPM_P2
2023/05/29 00:00:35;;;;;;;4.05;3.65;;;;;;;15.27;74.69;98681.88;4110937;28;20221;-44
2023/05/29 00:02:37;;;;;;;4.82;3.90;;;;;;;15.24;75.14;98676.91;4110982;28;20234;-43
2023/05/29 00:04:39;;;;;;;4.68;4.18;;;;;;;15.23;75.38;98680.75;4112985;28;20640;-43
2023/05/29 00:06:41;;;;;;;4.82;4.32;;;;;;;15.24;75.38;98685.16;4113425;28;20213;-43
2023/05/29 00:08:42;;;;;;;5.40;4.20;;;;;;;15.21;75.65;98682.97;4113129;28;20220;-43
2023/05/29 00:10:44;;;;;;;8.20;3.83;;;;;;;15.19;75.91;98674.16;4112951;28;20218;-44
2023/05/29 00:12:46;;;;;;;5.03;4.00;;;;;;;15.08;76.18;98678.00;4097612;28;20224;-43
2023/05/29 00:14:51;;;;;;;4.32;3.95;;;;;;;14.97;76.09;98676.34;4111413;28;20716;-43
2023/05/29 00:16:52;;;;;;;10.75;4.18;;;;;;;15.00;76.31;98675.81;4125143;28;20210;-43
2023/05/29 00:18:54;;;;;;;5.07;3.75;;;;;;;14.96;76.76;98680.19;4096662;28;20315;-43
2023/05/29 00:20:56;;;;;;;3.63;3.33;;;;;;;14.88;77.03;98677.16;4114206;28;20270;-44
2023/05/29 00:22:58;;;;;;;4.93;4.13;;;;;;;14.84;77.54;98679.63;4114448;28;20238;-44
2023/05/29 00:24:59;;;;;;;3.95;3.55;;;;;;;14.75;77.42;98677.69;4123384;28;20203;-43
2023/05/29 00:27:01;;;;;;;5.32;4.03;;;;;;;14.79;77.42;98679.66;4127012;28;20216;-44
2023/05/29 00:29:03;;;;;;;4.93;4.15;;;;;;;14.83;77.92;98675.22;4105776;28;20295;-43
2023/05/29 00:31:05;;;;;;;4.32;3.70;;;;;;;14.74;77.63;98671.34;4104314;28;20246;-45
2023/05/29 00:33:08;;;;;;;4.82;4.03;;;;;;;14.80;78.11;98675.78;4103814;28;20234;-45
2023/05/29 00:35:10;;;;;;;4.28;3.85;;;;;;;14.74;78.29;98676.88;4112456;28;20306;-44
2023/05/29 00:37:12;;;;;;;4.70;3.83;;;;;;;14.78;78.56;98678.00;4109651;28;20270;-43
2023/05/29 00:39:13;;;;;;;3.92;3.22;;;;;;;14.74;78.40;98682.38;4112861;28;20226;-43
2023/05/29 00:41:16;;;;;;;4.43;4.03;;;;;;;14.72;78.49;98673.56;4109574;28;20211;-45
2023/05/29 00:43:17;;;;;;;4.30;3.90;;;;;;;14.62;78.58;98672.72;4107678;28;20803;-43
2023/05/29 00:45:20;;;;;;;5.20;4.32;;;;;;;14.56;78.50;98677.38;4106195;28;20203;-44
2023/05/29 00:47:21;;;;;;;4.53;4.05;;;;;;;14.42;79.22;98678.19;4111478;28;20708;-43
2023/05/29 00:49:24;;;;;;;4.07;3.67;;;;;;;14.51;78.53;98665.53;4107706;28;20250;-44
2023/05/29 00:51:26;;;;;;;4.13;3.72;;;;;;;14.57;78.72;98665.25;4109038;28;20233;-45
2023/05/29 00:53:28;;;;;;;4.03;2.75;;;;;;;14.49;78.31;98668.53;4113025;28;20223;-44
2023/05/29 00:55:30;;;;;;;7.00;3.47;;;;;;;14.50;78.12;98664.69;4109838;28;20733;-43
2023/05/29 00:57:33;;;;;;;3.95;3.63;;;;;;;14.45;78.47;98666.59;4110709;28;20693;-43
2023/05/29 00:59:35;;;;;;;3.88;3.38;;;;;;;14.45;78.55;98672.13;4101625;28;20267;-42
2023/05/29 01:01:38;;;;;;;5.13;4.18;;;;;;;14.51;78.56;98669.09;4107945;28;20587;-44
2023/05/29 01:03:41;;;;;;;4.18;3.47;;;;;;;14.40;78.78;98670.19;4110306;28;20226;-43
2023/05/29 01:05:42;;;;;;;4.32;3.92;;;;;;;14.34;78.46;98671.25;4111825;28;20206;-44
2023/05/29 01:07:44;;;;;;;9.73;4.70;;;;;;;14.33;78.71;98669.59;4096761;28;20211;-44
2023/05/29 01:09:46;;;;;;;5.00;4.03;;;;;;;14.31;78.50;98668.22;4112672;28;20211;-44
2023/05/29 01:12:13;;;;;;;6.30;3.67;;;;;;;14.42;78.69;98673.47;4113890;28;20213;-45
2023/05/29 01:14:24;;;;;;;4.68;3.45;;;;;;;14.35;78.47;98672.91;4113335;28;20728;-43
2023/05/29 01:16:33;;;;;;;4.95;4.32;;;;;;;14.46;78.53;98671.00;4127046;28;20664;-45
2023/05/29 01:18:42;;;;;;;4.28;3.58;;;;;;;14.39;78.28;98668.53;4128350;28;20201;-43
2023/05/29 01:21:08;;;;;;;4.05;3.40;;;;;;;14.40;79.16;98674.84;4111101;28;20210;-44
2023/05/29 01:23:40;;;;;;;3.88;3.30;;;;;;;14.24;79.25;98665.69;4110835;28;20230;-43
2023/05/29 01:26:01;;;;;;;4.60;3.78;;;;;;;14.38;79.50;98666.03;4096324;28;20270;-44
2023/05/29 01:28:04;;;;;;;4.03;3.15;;;;;;;14.14;79.90;98673.91;4110422;28;20215;-43
2023/05/29 01:30:08;;;;;;;6.40;4.03;;;;;;;14.04;79.87;98665.59;4106284;28;20715;-44
2023/05/29 01:32:10;;;;;;;4.50;3.95;;;;;;;14.02;79.84;98667.78;4106863;28;20211;-43
2023/05/29 01:34:12;;;;;;;4.43;4.03;;;;;;;14.00;80.39;98674.66;4096003;28;20691;-44
2023/05/29 01:36:14;;;;;;;4.13;3.35;;;;;;;14.02;80.45;98667.78;4112003;28;20211;-44
2023/05/29 01:38:16;;;;;;;4.78;3.88;;;;;;;13.83;81.95;98665.78;4110500;28;20207;-42
2023/05/29 01:40:17;;;;;;;4.03;3.55;;;;;;;13.95;81.22;98672.72;4110763;28;20254;-43
2023/05/29 01:42:19;;;;;;;4.30;3.90;;;;;;;13.86;81.15;98662.47;4106490;28;20235;-43
2023/05/29 01:44:21;;;;;;;5.38;4.28;;;;;;;13.84;81.16;98671.00;4108945;28;20229;-43
2023/05/29 01:46:25;;;;;;;3.80;3.47;;;;;;;13.79;81.25;98668.25;4111614;28;20219;-44
2023/05/29 01:48:27;;;;;;;3.85;3.45;;;;;;;13.76;81.24;98678.94;4109550;28;20211;-43
2023/05/29 01:50:29;;;;;;;4.72;4.32;;;;;;;13.80;81.13;98675.38;4108903;28;20253;-43
2023/05/29 01:52:31;;;;;;;5.40;4.00;;;;;;;13.79;81.08;98679.25;4095802;28;20227;-44
2023/05/29 01:54:33;;;;;;;4.05;3.70;;;;;;;13.77;81.64;98681.41;4124930;28;20236;-43
2023/05/29 01:56:36;;;;;;;4.45;3.50;;;;;;;13.74;81.59;98676.47;4125101;28;20288;-42
2023/05/29 01:58:39;;;;;;;3.95;3.42;;;;;;;13.71;81.01;98687.97;4124881;28;20206;-43
2023/05/29 02:00:41;;;;;;;4.60;3.80;;;;;;;13.70;81.42;98680.81;4107482;28;20206;-46
2023/05/29 02:02:43;;;;;;;4.70;3.63;;;;;;;13.67;81.17;98683.28;4090576;28;20723;-46
2023/05/29 02:04:45;;;;;;;4.90;3.75;;;;;;;13.65;81.60;98683.56;4104417;28;20206;-45
2023/05/29 02:06:46;;;;;;;3.67;3.30;;;;;;;13.66;81.68;98679.72;4108598;28;20215;-47
2023/05/29 02:08:48;;;;;;;3.72;3.42;;;;;;;13.63;82.05;98679.41;4096176;28;20216;-46
2023/05/29 02:10:50;;;;;;;3.22;2.92;;;;;;;13.66;82.03;98679.72;4109218;28;20215;-45
2023/05/29 02:12:52;;;;;;;5.60;5.07;;;;;;;13.53;82.60;98680.19;4115247;28;20272;-46
2023/05/29 02:14:54;;;;;;;5.70;3.33;;;;;;;13.49;82.59;98673.53;4095453;29;20309;-45
2023/05/29 02:16:57;;;;;;;4.93;3.55;;;;;;;13.49;82.43;98668.03;4110194;28;20221;-45
2023/05/29 02:19:01;;;;;;;4.32;3.97;;;;;;;13.46;82.51;98668.59;4103909;28;20281;-45
2023/05/29 02:21:03;;;;;;;4.82;4.43;;;;;;;13.51;82.44;98670.53;4103279;28;20217;-44
2023/05/29 02:23:04;;;;;;;5.72;4.10;;;;;;;13.45;82.58;98677.09;4111240;28;20235;-46
2023/05/29 02:25:07;;;;;;;3.40;3.10;;;;;;;13.41;83.33;98670.44;4110225;28;20252;-46
2023/05/29 02:27:09;;;;;;;4.55;4.05;;;;;;;13.40;83.19;98664.13;4107872;28;20207;-46
2023/05/29 02:29:10;;;;;;;5.05;3.97;;;;;;;13.38;82.97;98671.00;4110309;28;20258;-46
2023/05/29 02:31:12;;;;;;;5.75;3.95;;;;;;;13.32;83.08;98672.88;4107727;28;20215;-46
2023/05/29 02:33:14;;;;;;;5.25;4.05;;;;;;;13.34;83.29;98669.84;4103114;28;20230;-45
2023/05/29 02:35:17;;;;;;;3.90;3.25;;;;;;;13.27;83.23;98675.59;4107496;28;20273;-45
2023/05/29 02:37:19;;;;;;;4.43;4.03;;;;;;;13.26;83.34;98667.59;4108234;28;20669;-46
2023/05/29 02:39:21;;;;;;;3.55;3.33;;;;;;;13.22;83.53;98675.53;4109051;28;20393;-46
2023/05/29 02:41:22;;;;;;;3.47;3.17;;;;;;;13.21;83.45;98673.88;4107730;28;20222;-46
2023/05/29 02:43:24;;;;;;;4.55;3.38;;;;;;;13.21;83.42;98662.91;4113311;28;20301;-45
2023/05/29 02:45:26;;;;;;;3.80;3.50;;;;;;;13.22;83.15;98678.28;4109986;28;20210;-46
2023/05/29 02:47:28;;;;;;;3.80;3.35;;;;;;;13.17;83.43;98672.75;4094208;28;20294;-46
2023/05/29 02:49:32;;;;;;;5.03;3.75;;;;;;;13.15;83.55;98677.69;4109768;28;22041;-46
2023/05/29 02:51:34;;;;;;;3.95;3.58;;;;;;;13.12;83.83;98678.22;4109238;28;20219;-46
2023/05/29 02:53:36;;;;;;;4.10;3.72;;;;;;;13.09;84.01;98673.22;4109007;28;20235;-46
2023/05/29 02:55:38;;;;;;;5.35;3.95;;;;;;;13.03;83.84;98674.28;4102994;28;20257;-46
2023/05/29 02:57:40;;;;;;;3.50;3.20;;;;;;;13.00;83.81;98668.47;4106879;28;20206;-46
2023/05/29 02:59:44;;;;;;;4.85;3.10;;;;;;;13.01;84.19;98670.13;4108992;28;20207;-46
2023/05/29 03:01:47;;;;;;;3.67;3.38;;;;;;;12.99;84.10;98664.94;4108548;28;20215;-45
2023/05/29 03:03:49;;;;;;;7.35;4.22;;;;;;;13.03;84.44;98668.78;4109852;28;20231;-46
2023/05/29 03:05:51;;;;;;;4.03;3.63;;;;;;;13.05;84.32;98663.84;4109093;28;20293;-46
2023/05/29 03:07:53;;;;;;;4.30;3.40;;;;;;;12.97;84.26;98664.34;4106860;28;20222;-45
2023/05/29 03:09:55;;;;;;;4.05;3.75;;;;;;;13.01;84.49;98662.72;4103105;28;20294;-45
2023/05/29 03:12:01;;;;;;;3.95;3.58;;;;;;;12.96;84.52;98662.69;4110872;28;20210;-46
2023/05/29 03:14:02;;;;;;;3.30;3.00;;;;;;;12.90;84.41;98663.69;4108480;28;20224;-45
2023/05/29 03:16:04;;;;;;;4.43;3.22;;;;;;;12.96;84.74;98664.63;4112476;28;20227;-44
2023/05/29 03:18:06;;;;;;;3.40;3.10;;;;;;;12.86;84.15;98668.06;4110145;28;20242;-45
2023/05/29 03:20:08;;;;;;;4.00;3.60;;;;;;;12.88;84.67;98670.53;4108762;28;20684;-45
2023/05/29 03:22:10;;;;;;;5.85;4.75;;;;;;;12.88;84.59;98667.78;4108702;28;20293;-45
2023/05/29 03:24:13;;;;;;;7.28;3.83;;;;;;;12.81;84.40;98668.03;4105972;28;20261;-45
2023/05/29 03:26:15;;;;;;;3.88;3.42;;;;;;;12.82;85.19;98672.41;4093226;28;20204;-47
2023/05/29 03:28:17;;;;;;;3.63;2.55;;;;;;;12.71;85.31;98670.66;4124327;28;20630;-48
2023/05/29 03:30:20;;;;;;;5.53;4.05;;;;;;;12.75;85.35;98666.31;4107636;28;20206;-45
2023/05/29 03:32:22;;;;;;;11.07;4.10;;;;;;;12.75;85.47;98671.81;4107636;28;20689;-45
2023/05/29 03:34:24;;;;;;;5.20;3.78;;;;;;;12.77;85.38;98679.78;4093372;28;20721;-46
2023/05/29 03:36:26;;;;;;;3.80;3.40;;;;;;;12.76;85.49;98678.94;4110847;28;20269;-45
2023/05/29 03:38:28;;;;;;;12.50;3.53;;;;;;;12.75;85.73;98677.28;4106430;28;20218;-46
2023/05/29 03:40:33;;;;;;;3.63;2.72;;;;;;;12.68;85.75;98668.44;4108586;28;20915;-46
2023/05/29 03:42:34;;;;;;;7.03;3.50;;;;;;;12.59;86.18;98666.41;4092402;28;20330;-46
2023/05/29 03:44:36;;;;;;;4.28;3.53;;;;;;;12.52;86.38;98666.63;4111796;28;20215;-46
2023/05/29 03:46:38;;;;;;;3.83;3.50;;;;;;;12.48;86.30;98676.47;4110772;28;20261;-45
2023/05/29 03:48:40;;;;;;;3.95;3.55;;;;;;;12.47;86.64;98672.06;4111683;28;20269;-46
2023/05/29 03:50:42;;;;;;;4.18;3.78;;;;;;;12.49;86.61;98678.13;4110858;28;20704;-46
2023/05/29 03:52:43;;;;;;;4.20;3.83;;;;;;;12.53;86.82;98679.28;4108343;28;20231;-46
2023/05/29 03:54:45;;;;;;;4.75;3.65;;;;;;;12.49;87.05;98683.59;4108141;28;20203;-45
2023/05/29 03:56:47;;;;;;;10.23;3.70;;;;;;;12.48;86.86;98681.13;4104915;28;20692;-45
2023/05/29 03:58:49;;;;;;;3.80;3.50;;;;;;;12.45;87.39;98682.44;4101972;28;20253;-46
2023/05/29 04:00:51;;;;;;;4.03;3.72;;;;;;;12.48;87.62;98690.19;4107935;28;20218;-46
2023/05/29 04:02:52;;;;;;;5.13;4.30;;;;;;;12.38;88.09;98692.81;4106627;28;20230;-46
2023/05/29 04:04:55;;;;;;;5.35;3.35;;;;;;;12.41;87.65;98703.28;4092772;28;20343;-45
2023/05/29 04:06:56;;;;;;;4.53;4.07;;;;;;;12.47;87.51;98706.91;4110614;28;20210;-46
2023/05/29 04:08:58;;;;;;;4.43;3.28;;;;;;;12.54;87.15;98702.88;4109561;28;20595;-46
2023/05/29 04:11:01;;;;;;;5.90;3.97;;;;;;;12.57;87.23;98713.34;4108999;28;20215;-46
2023/05/29 04:13:02;;;;;;;3.67;3.30;;;;;;;12.61;86.73;98717.25;4112431;28;20689;-46
2023/05/29 04:15:05;;;;;;;3.85;2.85;;;;;;;12.62;86.95;98715.31;4097516;28;20251;-45
2023/05/29 04:17:07;;;;;;;3.22;2.78;;;;;;;12.60;87.25;98718.34;4105927;28;20211;-46
2023/05/29 04:19:09;;;;;;;3.28;2.95;;;;;;;12.62;87.30;98721.63;4128030;28;20723;-46
2023/05/29 04:21:11;;;;;;;4.25;3.60;;;;;;;12.64;87.39;98724.94;4111045;28;20215;-45
2023/05/29 04:23:13;;;;;;;3.88;3.13;;;;;;;12.59;87.56;98719.41;4110955;28;20625;-45
2023/05/29 04:25:15;;;;;;;4.18;3.78;;;;;;;12.55;87.93;98712.78;4109712;28;20202;-46
2023/05/29 04:27:17;;;;;;;4.47;4.07;;;;;;;12.56;88.31;98722.66;4112403;28;20207;-45
2023/05/29 04:29:19;;;;;;;3.90;3.17;;;;;;;12.59;88.49;98724.91;4112626;28;20214;-45
2023/05/29 04:31:22;;;;;;;4.40;3.30;;;;;;;12.56;87.75;98728.16;4111557;28;20278;-46
2023/05/29 04:33:26;;;;;;;4.35;3.70;;;;;;;12.60;87.92;98734.81;4113010;28;20269;-46
2023/05/29 04:35:31;;;;;;;3.85;3.42;;;;;;;12.62;87.90;98732.63;4112980;28;20235;-46
2023/05/29 04:37:37;;;;;;;4.15;3.72;;;;;;;12.67;87.93;98735.44;4113477;28;20245;-46
2023/05/29 04:39:39;;;;;;;4.43;4.03;;;;;;;12.63;88.11;98742.50;4112078;28;21141;-45
2023/05/29 04:41:41;;;;;;;4.25;3.85;;;;;;;12.64;88.49;98746.91;4112508;28;20223;-46
2023/05/29 04:43:43;;;;;;;5.45;3.45;;;;;;;12.61;88.94;98743.84;4111773;28;20775;-46
2023/05/29 04:45:45;;;;;;;3.67;3.35;;;;;;;12.60;88.84;98751.28;4113373;28;20253;-45
2023/05/29 04:47:46;;;;;;;3.88;3.58;;;;;;;12.68;89.19;98748.06;4113411;28;20211;-46
2023/05/29 04:49:50;;;;;;;3.50;3.15;;;;;;;12.67;89.31;98757.38;4112416;28;20214;-46
2023/05/29 04:51:54;;;;;;;3.67;3.30;;;;;;;12.79;89.01;98758.09;4111635;28;20270;-46
2023/05/29 04:53:56;;;;;;;7.57;3.47;;;;;;;12.61;89.43;98758.41;4113301;28;20210;-46
2023/05/29 04:55:58;;;;;;;3.67;3.38;;;;;;;12.49;89.68;98754.13;4111898;28;20305;-46
2023/05/29 04:58:00;;;;;;;6.55;4.07;;;;;;;12.58;89.48;98747.94;4126946;28;20245;-45
2023/05/29 05:00:06;;;;;;;4.85;3.50;;;;;;;12.65;89.05;98750.50;4110300;28;20624;-46
2023/05/29 05:02:08;;;;;;;4.05;3.63;;;;;;;12.74;88.46;98752.53;4111161;28;20207;-45
2023/05/29 05:04:10;;;;;;;4.32;3.75;;;;;;;12.85;88.02;98759.75;4112194;28;20743;-46
2023/05/29 05:06:12;;;;;;;3.60;3.05;;;;;;;12.91;87.57;98758.72;4128363;28;20202;-45
2023/05/29 05:08:14;;;;;;;4.63;3.72;;;;;;;13.08;87.60;98759.50;4112543;28;20356;-47
2023/05/29 05:10:16;;;;;;;4.95;3.03;;;;;;;13.08;87.02;98770.50;4113913;28;20743;-46
2023/05/29 05:12:17;;;;;;;3.33;3.03;;;;;;;13.19;86.37;98774.16;4109831;28;20660;-45
2023/05/29 05:14:19;;;;;;;4.38;3.50;;;;;;;13.30;86.36;98776.75;4094673;28;20218;-45
2023/05/29 05:16:21;;;;;;;4.43;3.75;;;;;;;13.32;86.27;98771.00;4111908;28;20677;-45
2023/05/29 05:18:23;;;;;;;4.15;3.75;;;;;;;13.38;86.24;98779.00;4112213;28;20273;-45
2023/05/29 05:20:24;;;;;;;3.90;3.50;;;;;;;13.44;85.49;98775.22;4111959;28;20211;-46
2023/05/29 05:22:26;;;;;;;4.05;3.60;;;;;;;13.58;84.92;98781.13;4109480;28;20301;-46
2023/05/29 05:24:28;;;;;;;6.75;3.70;;;;;;;13.56;86.04;98778.63;4122409;28;20276;-46
2023/05/29 05:26:29;;;;;;;6.65;4.07;;;;;;;13.34;87.84;98786.13;4111087;28;20641;-45
2023/05/29 05:28:31;;;;;;;5.82;4.78;;;;;;;13.46;87.45;98783.22;4110638;28;20215;-45
2023/05/29 05:30:33;;;;;;;6.05;5.05;;;;;;;13.60;87.42;98785.25;4097669;28;20636;-45
2023/05/29 05:32:35;;;;;;;5.43;4.82;;;;;;;13.79;86.99;98782.94;4124752;28;20336;-45
2023/05/29 05:34:36;;;;;;;6.05;5.53;;;;;;;13.98;88.03;98784.97;4111733;28;20696;-46
2023/05/29 05:36:38;;;;;;;5.63;4.97;;;;;;;14.14;88.32;98775.75;4093841;28;20227;-45
2023/05/29 05:38:40;;;;;;;4.53;4.07;;;;;;;14.33;86.53;98781.66;4113440;28;20235;-46
2023/05/29 05:40:44;;;;;;;3.90;3.53;;;;;;;14.61;86.03;98778.47;4108976;28;20261;-46
2023/05/29 05:42:46;;;;;;;3.95;3.55;;;;;;;14.78;84.73;98779.94;4108726;28;20325;-45
2023/05/29 05:44:48;;;;;;;5.18;3.95;;;;;;;14.92;84.40;98783.00;4097289;28;20258;-45
2023/05/29 05:46:49;;;;;;;3.25;2.95;;;;;;;15.11;83.55;98786.91;4108977;28;20709;-45
2023/05/29 05:48:51;;;;;;;3.70;2.92;;;;;;;15.26;83.48;98785.00;4124500;28;20556;-46
2023/05/29 05:50:53;;;;;;;3.35;2.97;;;;;;;15.47;82.67;98789.47;4110035;28;20787;-45
2023/05/29 05:52:55;;;;;;;3.70;3.40;;;;;;;15.15;80.82;98783.31;4110944;28;20720;-45
2023/05/29 05:54:57;;;;;;;5.15;3.92;;;;;;;15.29;81.63;98789.97;4110929;28;20245;-45
2023/05/29 05:56:58;;;;;;;5.38;3.72;;;;;;;15.50;82.49;98796.38;4095738;28;20745;-45
2023/05/29 05:59:00;;;;;;;3.88;3.00;;;;;;;15.49;82.09;98795.53;4108263;28;20206;-45
2023/05/29 06:01:02;;;;;;;3.78;3.40;;;;;;;15.41;81.49;98798.84;4111448;28;20210;-46
2023/05/29 06:03:04;;;;;;;4.05;2.67;;;;;;;15.57;80.23;98796.94;4092804;28;20286;-45
2023/05/29 06:05:07;;;;;;;7.32;3.42;;;;;;;15.77;80.04;98796.94;4110416;28;20218;-45
2023/05/29 06:07:09;;;;;;;3.33;2.63;;;;;;;15.77;79.44;98796.94;4110108;28;20825;-46
2023/05/29 06:09:11;;;;;;;3.28;2.60;;;;;;;15.79;78.44;98806.59;4109431;28;20623;-45
2023/05/29 06:11:13;;;;;;;4.90;3.15;;;;;;;15.85;78.51;98805.50;4110816;28;20262;-46
2023/05/29 06:13:16;;;;;;;5.40;2.88;;;;;;;16.21;77.74;98809.84;4110235;28;20234;-45
2023/05/29 06:15:18;;;;;;;3.50;3.20;;;;;;;16.26;78.42;98804.31;4109677;28;20215;-47
2023/05/29 06:17:21;;;;;;;7.88;2.42;;;;;;;16.49;77.74;98800.97;4110841;28;20593;-45
2023/05/29 06:19:23;;;;;;;3.38;2.72;;;;;;;16.60;76.09;98808.13;4108566;28;20242;-46
2023/05/29 06:21:25;;;;;;;7.57;3.80;;;;;;;16.73;74.93;98802.00;4110726;28;20621;-46
2023/05/29 06:23:27;;;;;;;4.93;3.05;;;;;;;16.98;76.64;98805.47;4111709;28;21333;-46
2023/05/29 06:25:33;;;;;;;5.43;2.92;;;;;;;16.98;73.83;98816.53;4094101;28;20274;-46
2023/05/29 06:27:35;;;;;;;4.55;2.95;;;;;;;17.10;73.59;98808.72;4111551;28;20281;-46
2023/05/29 06:29:36;;;;;;;6.40;2.53;;;;;;;17.19;73.55;98811.72;4110055;28;20198;-45
2023/05/29 06:31:38;;;;;;;2.85;2.50;;;;;;;17.18;71.14;98810.06;4110528;28;20223;-45
2023/05/29 06:33:40;;;;;;;4.97;2.22;;;;;;;17.41;71.14;98820.47;4111337;28;20297;-46
2023/05/29 06:35:41;;;;;;;3.50;2.40;;;;;;;17.48;69.63;98821.81;4110847;28;20761;-46
2023/05/29 06:37:45;;;;;;;5.22;2.50;;;;;;;17.54;69.44;98819.81;4108384;28;20211;-46
2023/05/29 06:39:47;;;;;;;2.95;2.33;;;;;;;17.60;67.66;98818.69;4108744;28;20234;-46
2023/05/29 06:41:49;;;;;;;3.08;2.75;;;;;;;17.66;68.09;98817.53;4112201;28;20266;-46
2023/05/29 06:43:51;;;;;;;2.65;1.88;;;;;;;17.62;67.59;98822.81;4093706;28;20771;-46
2023/05/29 06:45:53;;;;;;;5.90;1.85;;;;;;;17.86;67.72;98820.13;4107838;28;20202;-47
2023/05/29 06:47:55;;;;;;;3.10;1.98;;;;;;;17.94;68.86;98827.81;4111249;28;20267;-46
2023/05/29 06:49:57;;;;;;;4.53;2.10;;;;;;;18.15;68.19;98823.75;4110417;28;20219;-46
2023/05/29 06:51:59;;;;;;;2.60;2.22;;;;;;;18.27;68.21;98824.19;4111294;28;20203;-45
2023/05/29 06:54:01;;;;;;;3.85;2.30;;;;;;;18.36;66.34;98828.84;4111257;28;20262;-46
2023/05/29 06:56:04;;;;;;;3.70;2.50;;;;;;;18.58;65.05;98825.56;4109265;28;20285;-45
2023/05/29 06:58:06;;;;;;;2.60;2.22;;;;;;;18.70;65.65;98823.19;4106749;28;20219;-45
2023/05/29 07:00:10;;;;;;;4.22;2.58;;;;;;;18.69;64.99;98830.69;4109670;28;20242;-48
2023/05/29 07:02:12;;;;;;;5.53;2.95;;;;;;;18.85;65.10;98825.81;4111512;28;20249;-46
2023/05/29 07:04:14;;;;;;;2.60;2.05;;;;;;;18.93;65.21;98827.91;4108827;28;20202;-45
2023/05/29 07:06:15;;;;;;;5.22;2.05;;;;;;;19.09;64.80;98826.59;4110748;28;20269;-48
2023/05/29 07:08:17;;;;;;;3.10;2.22;;;;;;;19.40;64.37;98827.88;4109083;28;20552;-46
2023/05/29 07:10:19;;;;;;;4.57;2.25;;;;;;;19.51;63.58;98824.63;4109783;28;20215;-46
2023/05/29 07:12:23;;;;;;;3.67;2.60;;;;;;;19.70;63.38;98827.41;4109679;28;20253;-46
2023/05/29 07:14:24;;;;;;;2.95;1.95;;;;;;;19.40;63.13;98816.75;4106674;28;20210;-44
2023/05/29 07:16:26;;;;;;;3.13;2.13;;;;;;;19.65;63.14;98819.16;4108520;28;20675;-46
2023/05/29 07:18:28;;;;;;;2.38;1.83;;;;;;;19.99;61.87;98822.50;4111182;28;20281;-46
2023/05/29 07:20:30;;;;;;;8.30;2.63;;;;;;;19.98;62.72;98824.44;4108336;28;20277;-46
2023/05/29 07:22:32;;;;;;;3.05;2.25;;;;;;;19.95;61.87;98818.66;4108993;28;20230;-44
2023/05/29 07:24:34;;;;;;;2.45;2.25;;;;;;;20.06;61.55;98814.63;4109882;28;20390;-44
2023/05/29 07:26:35;;;;;;;4.28;1.98;;;;;;;20.36;61.91;98820.47;4108120;28;20206;-43
2023/05/29 07:28:37;;;;;;;4.72;2.10;;;;;;;20.39;61.59;98825.41;4109310;28;20229;-43
2023/05/29 07:30:39;;;;;;;4.15;2.40;;;;;;;20.44;61.55;98816.97;4103163;28;20203;-43
2023/05/29 07:32:40;;;;;;;5.60;2.15;;;;;;;20.45;60.40;98813.06;4108065;28;20225;-43
2023/05/29 07:34:42;;;;;;;2.58;2.33;;;;;;;20.30;60.55;98820.88;4108269;28;20217;-43
2023/05/29 07:37:04;;;;;;;5.85;2.22;;;;;;;20.71;59.76;98819.00;4110818;28;20230;-43
2023/05/29 07:39:07;;;;;;;2.88;1.67;;;;;;;20.82;59.12;98820.41;4108838;28;20209;-43
2023/05/29 07:41:09;;;;;;;3.47;2.72;;;;;;;20.84;58.51;98823.75;4110763;28;20241;-43
2023/05/29 07:43:11;;;;;;;4.70;2.45;;;;;;;20.94;58.96;98831.91;4111931;28;20237;-45
2023/05/29 07:45:13;;;;;;;5.75;2.60;;;;;;;20.62;60.13;98834.72;4109980;28;20619;-43
2023/05/29 07:47:15;;;;;;;4.72;2.38;;;;;;;20.87;56.59;98825.88;4110689;28;20307;-42
2023/05/29 07:49:16;;;;;;;2.58;2.35;;;;;;;21.10;57.39;98828.50;4125764;28;20747;-43
2023/05/29 07:51:19;;;;;;;2.70;1.85;;;;;;;20.98;57.61;98821.81;4110995;28;20211;-43
2023/05/29 07:53:20;;;;;;;4.57;2.50;;;;;;;20.60;58.86;98825.88;4113705;28;20230;-43
2023/05/29 07:55:22;;;;;;;2.97;1.90;;;;;;;21.13;57.30;98815.91;4096504;28;20621;-44
2023/05/29 07:57:25;;;;;;;3.72;2.28;;;;;;;21.49;57.33;98816.75;4112499;28;20226;-43
2023/05/29 07:59:26;;;;;;;9.02;2.03;;;;;;;21.57;54.62;98816.03;4111685;28;20210;-44
2023/05/29 08:01:28;;;;;;;3.78;2.17;;;;;;;21.52;54.95;98824.50;4111129;28;20254;-42
2023/05/29 08:03:31;;;;;;;5.70;1.95;;;;;;;21.41;52.60;98825.88;4111813;28;20268;-44
2023/05/29 08:05:33;;;;;;;3.90;2.53;;;;;;;21.28;52.22;98827.53;4110806;28;20210;-44
2023/05/29 08:07:36;;;;;;;3.97;2.55;;;;;;;21.56;53.05;98828.28;4113352;28;20731;-43
2023/05/29 08:09:38;;;;;;;3.30;1.98;;;;;;;21.38;51.21;98826.50;4095643;28;20210;-43
2023/05/29 08:11:39;;;;;;;2.47;2.13;;;;;;;21.07;51.11;98831.06;4111282;28;20314;-43
2023/05/29 08:13:41;;;;;;;4.10;2.30;;;;;;;21.44;53.39;98830.81;4112361;28;20226;-43
2023/05/29 08:15:43;;;;;;;4.07;2.53;;;;;;;21.17;51.52;98831.69;4127604;28;20206;-43
2023/05/29 08:17:45;;;;;;;5.20;2.20;;;;;;;21.52;51.79;98832.88;4126688;28;20300;-44
2023/05/29 08:19:46;;;;;;;3.88;2.67;;;;;;;21.30;50.62;98835.59;4113097;28;20210;-43
2023/05/29 08:21:48;;;;;;;4.07;2.90;;;;;;;21.60;50.99;98834.91;4112760;28;20218;-43
2023/05/29 08:23:50;;;;;;;3.42;2.60;;;;;;;21.78;50.60;98836.75;4113032;28;20241;-43
2023/05/29 08:25:51;;;;;;;3.70;2.17;;;;;;;21.82;51.09;98834.97;4112668;28;20215;-45
2023/05/29 08:27:53;;;;;;;4.20;2.72;;;;;;;21.71;50.40;98839.94;4112206;28;20207;-46
2023/05/29 08:29:55;;;;;;;2.75;2.40;;;;;;;21.61;50.48;98842.13;4111230;28;20265;-46
2023/05/29 08:31:56;;;;;;;18.55;2.33;;;;;;;21.77;50.52;98841.47;4093343;28;20265;-42
2023/05/29 08:33:58;;;;;;;5.28;2.55;;;;;;;22.26;51.29;98837.78;4109554;28;20218;-43
2023/05/29 08:36:00;;;;;;;2.75;1.95;;;;;;;22.26;49.99;98838.59;4089025;29;20207;-43
2023/05/29 08:38:02;;;;;;;4.95;2.00;;;;;;;22.32;49.32;98842.88;4110722;28;20265;-44
2023/05/29 08:40:09;;;;;;;3.10;2.25;;;;;;;22.45;48.73;98835.63;4109064;28;20214;-43
2023/05/29 08:42:14;;;;;;;2.65;2.45;;;;;;;22.08;48.93;98839.63;4109861;28;20299;-42
2023/05/29 08:44:21;;;;;;;2.65;2.15;;;;;;;22.13;48.85;98838.66;4108736;28;20215;-44
2023/05/29 08:46:23;;;;;;;6.50;2.40;;;;;;;22.10;51.12;98839.31;4110685;28;20214;-43
2023/05/29 08:48:27;;;;;;;14.80;2.75;;;;;;;22.53;50.18;98837.66;4109256;28;20298;-43
2023/05/29 08:50:29;;;;;;;2.88;2.03;;;;;;;22.51;49.43;98824.00;4111161;28;20220;-43
2023/05/29 08:52:37;;;;;;;4.97;2.60;;;;;;;22.69;49.14;98827.72;4110296;28;20238;-43
2023/05/29 08:54:40;;;;;;;3.72;2.67;;;;;;;23.05;51.41;98823.59;4123129;28;20260;-44
2023/05/29 08:56:42;;;;;;;4.95;2.65;;;;;;;23.59;50.88;98825.06;4107007;28;20227;-43
2023/05/29 08:58:44;;;;;;;3.08;2.30;;;;;;;23.97;50.23;98828.91;4105146;28;20203;-44
2023/05/29 09:00:46;;;;;;;2.70;2.00;;;;;;;23.53;47.89;98834.75;4108108;28;20254;-42
2023/05/29 09:02:48;;;;;;;2.95;2.20;;;;;;;23.80;48.03;98830.50;4123243;28;20237;-42
2023/05/29 09:04:54;;;;;;;3.55;2.53;;;;;;;23.47;49.14;98836.91;4127227;28;20209;-45
2023/05/29 09:06:56;;;;;;;3.00;2.15;;;;;;;23.78;49.75;98832.81;4122842;28;20205;-42
2023/05/29 09:08:58;;;;;;;3.90;2.30;;;;;;;23.21;50.46;98833.22;4110407;28;20266;-43
2023/05/29 09:11:00;;;;;;;3.00;2.10;;;;;;;23.47;49.67;98836.91;4109212;28;20211;-43
2023/05/29 09:13:03;;;;;;;3.08;1.98;;;;;;;23.60;47.83;98827.56;4108134;28;20277;-43
2023/05/29 09:15:17;;;;;;;6.35;2.45;;;;;;;23.90;47.49;98836.97;4111006;28;20209;-43
2023/05/29 09:17:19;;;;;;;3.22;2.17;;;;;;;24.03;47.39;98834.84;4111246;28;20226;-42
2023/05/29 09:19:21;;;;;;;3.55;2.03;;;;;;;24.09;48.55;98836.31;4108683;28;20207;-43
2023/05/29 09:21:27;;;;;;;2.30;2.10;;;;;;;23.92;49.24;98827.91;4106799;28;20221;-43
2023/05/29 09:23:29;;;;;;;4.88;2.28;;;;;;;23.89;47.14;98821.34;4110995;28;20280;-44
2023/05/29 09:25:32;;;;;;;3.10;2.28;;;;;;;23.70;46.45;98830.00;4110235;28;20210;-43
2023/05/29 09:27:39;;;;;;;4.13;2.25;;;;;;;23.89;47.45;98826.94;4107779;28;20616;-43
2023/05/29 09:29:41;;;;;;;2.30;2.08;;;;;;;23.84;48.41;98828.72;4105652;28;20285;-43
2023/05/29 09:31:47;;;;;;;4.07;2.67;;;;;;;24.27;48.93;98834.31;4107591;28;20214;-42
2023/05/29 09:33:50;;;;;;;3.20;2.25;;;;;;;24.32;46.43;98842.56;4109360;28;20534;-44
2023/05/29 09:35:51;;;;;;;3.25;2.95;;;;;;;23.84;47.02;98831.50;4111948;28;20221;-43
2023/05/29 09:37:53;;;;;;;5.75;2.60;;;;;;;24.50;48.57;98835.75;4110122;28;20230;-43